Time;durP1;ratioP1;P1;durP2;ratioP2;P2;SDS_P1;SDS_P2;PMS_P1;PMS_P2;Temp;Humidity;BMP_temperature;BMP_pressure;BME280_temperature;BME280_humidity;BME280_pressure;Samples;Min_cycle;Max_cycle;Signal;HPM_P1;HPM_P2
2022/12/13 00:01:42;;;;;;;34.10;20.27;;;-3.60;99.90;;;;;;6238333;28;20056;-83
2022/12/13 00:04:44;;;;;;;41.17;21.23;;;-3.60;99.90;;;;;;6238771;28;20054;-84
2022/12/13 00:07:46;;;;;;;45.37;22.03;;;-3.60;99.90;;;;;;6239773;28;20045;-82
2022/12/13 00:10:59;;;;;;;37.90;25.87;;;-3.60;99.90;;;;;;6241043;28;20042;-84
2022/12/13 00:14:01;;;;;;;44.27;21.73;;;-3.60;99.90;;;;;;6242522;28;20050;-82
2022/12/13 00:17:03;;;;;;;36.50;18.23;;;-3.70;99.90;;;;;;6238268;28;20077;-84
2022/12/13 00:20:05;;;;;;;38.97;23.67;;;-3.70;99.90;;;;;;6240245;28;20042;-84
2022/12/13 00:23:07;;;;;;;34.70;19.83;;;-3.70;99.90;;;;;;6239574;28;20046;-84
2022/12/13 00:26:13;;;;;;;39.70;21.63;;;-3.70;99.90;;;;;;6237624;28;20054;-82
2022/12/13 00:29:14;;;;;;;36.17;20.10;;;-3.80;99.90;;;;;;6239382;28;20053;-85
2022/12/13 00:32:16;;;;;;;34.40;19.27;;;-3.80;99.90;;;;;;6239625;28;20061;-83
2022/12/13 00:35:18;;;;;;;34.90;18.70;;;-3.80;99.90;;;;;;6240465;28;20434;-82
2022/12/13 00:38:20;;;;;;;43.33;19.33;;;-3.80;99.90;;;;;;6240188;28;20056;-85
2022/12/13 00:41:23;;;;;;;37.53;20.80;;;-3.90;99.90;;;;;;6214752;28;20058;-84
2022/12/13 00:44:26;;;;;;;35.87;20.13;;;-3.90;99.90;;;;;;6211617;28;20595;-82
2022/12/13 00:47:28;;;;;;;47.23;22.37;;;-3.90;99.90;;;;;;6212974;28;20057;-82
2022/12/13 00:50:29;;;;;;;38.33;23.03;;;-3.80;99.90;;;;;;6212538;28;20050;-82
2022/12/13 00:53:31;;;;;;;34.67;17.53;;;-3.90;99.90;;;;;;6213164;28;20050;-82
2022/12/13 00:56:34;;;;;;;39.33;21.90;;;-3.90;99.90;;;;;;6212404;28;20050;-83
2022/12/13 00:59:36;;;;;;;37.73;19.57;;;-3.90;99.90;;;;;;6210056;28;20050;-82
2022/12/13 01:02:38;;;;;;;39.13;17.00;;;-4.00;99.90;;;;;;6210541;28;20050;-83
2022/12/13 01:05:40;;;;;;;34.43;18.87;;;-3.90;99.90;;;;;;6209462;28;20057;-81
2022/12/13 01:08:42;;;;;;;40.17;19.63;;;-4.00;99.90;;;;;;6201174;28;20054;-81
2022/12/13 01:11:46;;;;;;;39.73;20.17;;;-4.00;99.90;;;;;;6201101;28;20042;-81
2022/12/13 01:14:48;;;;;;;37.53;20.43;;;-4.00;99.90;;;;;;6202256;28;20054;-82
2022/12/13 01:17:50;;;;;;;24.63;13.83;;;-4.00;99.90;;;;;;6202592;28;20054;-82
2022/12/13 01:20:59;;;;;;;37.63;17.43;;;-4.00;99.90;;;;;;6204418;28;20600;-83
2022/12/13 01:24:02;;;;;;;35.67;19.73;;;-4.00;99.90;;;;;;6209235;28;20531;-82
2022/12/13 01:27:05;;;;;;;34.63;19.33;;;-4.10;99.90;;;;;;6212333;28;20046;-82
2022/12/13 01:30:08;;;;;;;30.60;20.17;;;-4.00;99.90;;;;;;6201145;28;20061;-81
2022/12/13 01:33:09;;;;;;;37.00;19.67;;;-4.10;99.90;;;;;;6201389;28;20057;-81
2022/12/13 01:36:14;;;;;;;47.43;20.53;;;-4.00;99.90;;;;;;6200790;28;20479;-81
2022/12/13 01:39:19;;;;;;;29.07;18.27;;;-4.10;99.90;;;;;;6201350;28;20504;-81
2022/12/13 01:42:22;;;;;;;32.67;17.07;;;-4.00;99.90;;;;;;6203298;28;20050;-81
2022/12/13 01:45:26;;;;;;;35.07;17.93;;;-4.10;99.90;;;;;;6201622;28;20126;-81
2022/12/13 01:48:32;;;;;;;32.70;17.30;;;-4.10;99.90;;;;;;6202217;28;20050;-81
2022/12/13 01:51:49;;;;;;;33.70;19.53;;;-4.10;99.90;;;;;;6201511;28;20081;-81
2022/12/13 01:54:53;;;;;;;32.77;17.77;;;-4.10;99.90;;;;;;6198345;28;20390;-81
2022/12/13 01:57:59;;;;;;;31.93;18.43;;;-4.10;99.90;;;;;;6204975;28;20508;-83
2022/12/13 02:01:01;;;;;;;37.53;20.77;;;-4.10;99.90;;;;;;6203608;28;20055;-83
2022/12/13 02:04:03;;;;;;;39.03;21.27;;;-4.20;99.90;;;;;;6206583;28;20060;-81
2022/12/13 02:07:06;;;;;;;36.87;20.93;;;-4.10;99.90;;;;;;6204367;28;20046;-83
2022/12/13 02:10:09;;;;;;;34.20;18.60;;;-4.20;99.90;;;;;;6204602;28;20050;-82
2022/12/13 02:13:13;;;;;;;36.90;20.93;;;-4.20;99.90;;;;;;6201468;28;20051;-81
2022/12/13 02:16:24;;;;;;;32.83;21.83;;;-4.20;99.90;;;;;;6204126;28;20110;-81
2022/12/13 02:20:24;;;;;;;41.17;22.20;;;-4.30;99.90;;;;;;6203223;28;20050;-81
2022/12/13 02:23:52;;;;;;;35.77;20.23;;;-4.30;99.90;;;;;;6205232;28;20065;-82
2022/12/13 02:27:07;;;;;;;34.13;18.83;;;-4.40;99.90;;;;;;6208632;28;20054;-83
2022/12/13 02:30:26;;;;;;;38.70;20.47;;;-4.40;99.90;;;;;;6206886;28;20050;-81
2022/12/13 02:33:43;;;;;;;43.67;20.67;;;-4.50;99.90;;;;;;6205085;28;20050;-82
2022/12/13 02:36:53;;;;;;;30.48;16.55;;;-4.50;99.90;;;;;;6204933;28;20119;-81
2022/12/13 02:40:00;;;;;;;28.43;15.23;;;-4.50;99.90;;;;;;6206341;28;20042;-81
2022/12/13 02:43:07;;;;;;;38.40;19.50;;;-4.50;99.90;;;;;;6207355;28;20496;-81
2022/12/13 02:46:12;;;;;;;39.83;19.90;;;-4.50;99.90;;;;;;6207857;28;20054;-81
2022/12/13 02:49:15;;;;;;;31.33;16.33;;;-4.50;99.90;;;;;;6206887;28;20046;-81
2022/12/13 02:52:20;;;;;;;33.33;17.57;;;-4.50;99.90;;;;;;6207430;28;20055;-81
2022/12/13 02:55:22;;;;;;;38.83;22.57;;;-4.50;99.90;;;;;;6208582;28;20057;-81
2022/12/13 02:58:28;;;;;;;30.27;21.00;;;-4.60;99.90;;;;;;6243950;22;20049;-80
2022/12/13 03:01:46;;;;;;;38.93;19.60;;;-4.60;99.90;;;;;;6233580;28;20054;-81
2022/12/13 03:08:23;;;;;;;38.23;21.90;;;-4.60;99.90;;;;;;6218879;28;20119;-82
2022/12/13 03:14:58;;;;;;;37.90;18.97;;;-4.60;99.90;;;;;;6208394;28;20058;-81
2022/12/13 03:18:14;;;;;;;39.07;19.03;;;-4.70;99.90;;;;;;6208386;28;20114;-81
2022/12/13 03:21:16;;;;;;;44.77;20.33;;;-4.70;99.90;;;;;;6208296;28;20519;-82
2022/12/13 03:24:19;;;;;;;32.67;17.67;;;-4.70;99.90;;;;;;6207757;28;20427;-81
2022/12/13 03:27:21;;;;;;;34.37;19.83;;;-4.70;99.90;;;;;;6207985;28;20045;-82
2022/12/13 03:30:22;;;;;;;42.90;16.80;;;-4.70;99.90;;;;;;6208756;28;20050;-81
2022/12/13 03:33:25;;;;;;;47.50;19.07;;;-4.70;99.90;;;;;;6208483;28;20046;-82
2022/12/13 03:36:27;;;;;;;33.60;19.03;;;-4.70;99.90;;;;;;6208361;28;20057;-81
2022/12/13 03:39:29;;;;;;;44.97;22.30;;;-4.70;99.90;;;;;;6206793;28;20053;-81
2022/12/13 03:42:31;;;;;;;45.90;19.63;;;-4.70;99.90;;;;;;6208397;28;20050;-83
2022/12/13 03:45:32;;;;;;;42.63;22.47;;;-4.70;99.90;;;;;;6204639;28;20046;-81
2022/12/13 03:48:35;;;;;;;39.70;22.53;;;-4.70;99.90;;;;;;6207140;28;20063;-80
2022/12/13 03:51:37;;;;;;;46.33;24.97;;;-4.70;99.90;;;;;;6208038;28;20065;-82
2022/12/13 03:54:39;;;;;;;23.57;15.00;;;-4.70;99.90;;;;;;6218758;28;20050;-80
2022/12/13 03:57:40;;;;;;;50.60;24.60;;;-4.70;99.90;;;;;;6216875;28;20050;-81
2022/12/13 04:00:42;;;;;;;40.60;22.50;;;-4.70;99.90;;;;;;6210565;28;20042;-79
2022/12/13 04:03:46;;;;;;;42.87;23.00;;;-4.70;99.90;;;;;;6209577;28;20061;-81
2022/12/13 04:06:48;;;;;;;36.80;20.93;;;-4.70;99.90;;;;;;6209395;28;20058;-80
2022/12/13 04:09:50;;;;;;;50.93;25.70;;;-4.70;99.90;;;;;;6208809;28;20046;-81
2022/12/13 04:16:11;;;;;;;40.37;21.07;;;-4.70;99.90;;;;;;6207291;28;20046;-80
2022/12/13 04:19:14;;;;;;;53.03;24.47;;;-4.70;99.90;;;;;;6206758;28;20053;-81
2022/12/13 04:22:15;;;;;;;42.93;22.57;;;-4.80;99.90;;;;;;6208263;28;20046;-80
2022/12/13 04:25:18;;;;;;;28.43;16.87;;;-4.80;99.90;;;;;;6207215;28;20047;-80
2022/12/13 04:28:19;;;;;;;48.37;26.77;;;-4.80;99.90;;;;;;6206748;28;20139;-80
2022/12/13 04:31:21;;;;;;;38.23;20.47;;;-4.80;99.90;;;;;;6206420;28;20047;-80
2022/12/13 04:34:24;;;;;;;32.87;19.33;;;-4.70;99.90;;;;;;6206831;28;20050;-81
2022/12/13 04:37:26;;;;;;;47.80;24.87;;;-4.70;99.90;;;;;;6205617;28;20427;-80
2022/12/13 04:40:28;;;;;;;38.33;19.37;;;-4.70;99.90;;;;;;6205510;28;20054;-80
2022/12/13 04:43:29;;;;;;;49.70;23.83;;;-4.80;99.90;;;;;;6204943;28;20045;-80
2022/12/13 04:46:31;;;;;;;48.07;26.43;;;-4.90;99.90;;;;;;6204830;28;20057;-81
2022/12/13 04:49:35;;;;;;;48.63;23.17;;;-4.90;99.90;;;;;;6204460;28;20121;-81
2022/12/13 04:52:38;;;;;;;43.87;22.17;;;-4.90;99.90;;;;;;6204017;28;20050;-80
2022/12/13 04:55:40;;;;;;;47.47;24.83;;;-4.90;99.90;;;;;;6203785;28;20593;-80
2022/12/13 04:58:44;;;;;;;47.17;26.40;;;-4.90;99.90;;;;;;6204015;28;20058;-80
2022/12/13 05:01:46;;;;;;;35.07;21.27;;;-4.90;99.90;;;;;;6200971;28;20181;-81
2022/12/13 05:04:49;;;;;;;53.63;23.77;;;-5.00;99.90;;;;;;6200814;28;20424;-80
2022/12/13 05:07:51;;;;;;;44.73;24.37;;;-5.00;99.90;;;;;;6200703;28;20054;-79
2022/12/13 05:10:54;;;;;;;42.33;25.17;;;-5.00;99.90;;;;;;6200354;28;20046;-80
2022/12/13 05:13:56;;;;;;;40.57;20.73;;;-5.00;99.90;;;;;;6200386;28;20515;-80
2022/12/13 05:16:58;;;;;;;38.27;19.90;;;-5.00;99.90;;;;;;6200398;28;20057;-80
2022/12/13 05:20:01;;;;;;;52.70;23.27;;;-5.10;99.90;;;;;;6200005;28;20051;-79
2022/12/13 05:23:02;;;;;;;40.43;22.30;;;-5.10;99.90;;;;;;6200558;28;20046;-80
2022/12/13 05:26:04;;;;;;;37.63;22.57;;;-5.10;99.90;;;;;;6201604;28;20448;-80
2022/12/13 05:29:06;;;;;;;46.33;21.47;;;-5.10;99.90;;;;;;6200747;28;20054;-80
2022/12/13 05:32:08;;;;;;;41.07;21.80;;;-5.10;99.90;;;;;;6200400;28;20461;-80
2022/12/13 05:35:11;;;;;;;45.27;23.03;;;-5.10;99.90;;;;;;6200731;28;20523;-80
2022/12/13 05:38:13;;;;;;;45.20;26.23;;;-5.10;99.90;;;;;;6200753;28;20055;-80
2022/12/13 05:41:17;;;;;;;52.93;24.70;;;-5.10;99.90;;;;;;6200825;28;20043;-80
2022/12/13 05:44:19;;;;;;;50.93;28.63;;;-5.20;99.90;;;;;;6201232;28;20046;-79
2022/12/13 05:47:20;;;;;;;43.77;25.63;;;-5.10;99.90;;;;;;6200722;28;20507;-80
2022/12/13 05:50:23;;;;;;;53.77;27.23;;;-5.20;99.90;;;;;;6202025;28;20069;-80
2022/12/13 05:53:25;;;;;;;44.37;22.00;;;-5.20;99.90;;;;;;6200660;28;20419;-79
2022/12/13 05:56:27;;;;;;;41.53;24.93;;;-5.30;99.90;;;;;;6201174;28;20502;-80
2022/12/13 05:59:28;;;;;;;40.47;20.37;;;-5.30;99.90;;;;;;6204496;28;20042;-81
2022/12/13 06:02:30;;;;;;;45.73;21.03;;;-5.30;99.90;;;;;;6206441;28;20386;-81
2022/12/13 06:05:33;;;;;;;54.03;26.10;;;-5.30;99.90;;;;;;6207563;28;20046;-81
2022/12/13 06:08:35;;;;;;;40.10;20.10;;;-5.30;99.90;;;;;;6206277;28;20046;-80
2022/12/13 06:11:37;;;;;;;39.20;20.47;;;-5.30;99.90;;;;;;6207095;28;20046;-80
2022/12/13 06:14:39;;;;;;;45.30;20.20;;;-5.30;99.90;;;;;;6206687;28;20579;-81
2022/12/13 06:17:40;;;;;;;51.13;25.47;;;-5.40;99.90;;;;;;6207765;28;20051;-80
2022/12/13 06:20:43;;;;;;;46.60;21.97;;;-5.30;99.90;;;;;;6208095;28;20508;-80
2022/12/13 06:23:45;;;;;;;53.27;22.77;;;-5.30;99.90;;;;;;6206805;28;20050;-81
2022/12/13 06:26:48;;;;;;;41.90;22.47;;;-5.30;99.90;;;;;;6207113;28;20053;-81
2022/12/13 06:29:49;;;;;;;41.80;23.43;;;-5.30;99.90;;;;;;6207242;28;20050;-80
2022/12/13 06:32:51;;;;;;;45.37;23.53;;;-5.20;99.90;;;;;;6206003;28;20523;-79
2022/12/13 06:35:57;;;;;;;46.07;24.10;;;-5.20;99.90;;;;;;6205729;28;20853;-80
2022/12/13 06:39:02;;;;;;;46.73;23.27;;;-5.20;99.90;;;;;;6214341;28;20064;-82
2022/12/13 06:42:05;;;;;;;47.53;26.87;;;-5.20;99.90;;;;;;6215473;28;20046;-84
2022/12/13 06:45:08;;;;;;;48.37;26.43;;;-5.30;99.90;;;;;;6205308;28;20064;-84
2022/12/13 06:48:10;;;;;;;50.13;23.63;;;-5.30;99.90;;;;;;6230855;28;20088;-82
2022/12/13 06:51:13;;;;;;;46.37;23.70;;;-5.30;99.90;;;;;;6249638;28;20042;-80
2022/12/13 06:54:15;;;;;;;50.60;25.40;;;-5.40;99.90;;;;;;6231405;28;20046;-80
2022/12/13 06:57:17;;;;;;;52.90;25.97;;;-5.40;99.90;;;;;;6208726;28;20054;-82
2022/12/13 07:00:19;;;;;;;46.57;23.73;;;-5.40;99.90;;;;;;6209217;28;20523;-82
2022/12/13 07:03:20;;;;;;;55.40;29.03;;;-5.40;99.90;;;;;;6208348;28;20042;-81
2022/12/13 07:06:25;;;;;;;52.97;27.00;;;-5.40;99.90;;;;;;6209835;28;20050;-81
2022/12/13 07:09:26;;;;;;;45.53;25.97;;;-5.40;99.90;;;;;;6207364;28;20068;-82
2022/12/13 07:12:28;;;;;;;50.27;26.57;;;-5.40;99.90;;;;;;6208769;28;20526;-82
2022/12/13 07:15:33;;;;;;;45.53;23.50;;;-5.40;99.90;;;;;;6208048;28;20554;-81
2022/12/13 07:18:34;;;;;;;46.67;24.40;;;-5.40;99.90;;;;;;6209313;28;20500;-82
2022/12/13 07:21:38;;;;;;;50.33;25.23;;;-5.40;99.90;;;;;;6230523;28;20053;-81
2022/12/13 07:24:40;;;;;;;44.17;25.17;;;-5.40;99.90;;;;;;6230598;28;20125;-81
2022/12/13 07:27:42;;;;;;;53.70;28.57;;;-5.40;99.90;;;;;;6230995;28;20056;-82
2022/12/13 07:30:43;;;;;;;54.50;27.53;;;-5.30;99.90;;;;;;6230536;28;20061;-84
2022/12/13 07:33:45;;;;;;;53.67;26.93;;;-5.30;99.90;;;;;;6233352;28;20049;-84
2022/12/13 07:36:49;;;;;;;53.77;28.27;;;-5.30;99.90;;;;;;6230810;28;20050;-81
2022/12/13 07:39:51;;;;;;;50.13;26.63;;;-5.20;99.90;;;;;;6231195;28;20056;-82
2022/12/13 07:42:53;;;;;;;54.07;29.10;;;-5.20;99.90;;;;;;6232341;28;20049;-83
2022/12/13 07:45:58;;;;;;;40.50;21.40;;;-5.10;99.90;;;;;;6239456;28;20065;-81
2022/12/13 07:49:00;;;;;;;53.60;24.83;;;-5.10;99.90;;;;;;6248952;28;20041;-82
2022/12/13 07:52:04;;;;;;;50.20;22.83;;;-5.10;99.90;;;;;;6240500;28;20050;-83
2022/12/13 07:55:07;;;;;;;54.73;25.30;;;-5.00;99.90;;;;;;6237285;28;20042;-81
2022/12/13 07:58:10;;;;;;;54.60;27.60;;;-4.90;99.90;;;;;;6235700;28;20060;-83
2022/12/13 08:01:12;;;;;;;50.57;24.07;;;-4.90;99.90;;;;;;6235567;28;20057;-83
2022/12/13 08:04:14;;;;;;;42.33;21.23;;;-4.90;99.90;;;;;;6234099;28;20052;-83
2022/12/13 08:07:17;;;;;;;57.17;26.10;;;-4.80;99.90;;;;;;6234372;28;20046;-80
2022/12/13 08:10:19;;;;;;;47.63;21.50;;;-4.80;99.90;;;;;;6233371;28;20060;-83
2022/12/13 08:13:21;;;;;;;56.60;24.23;;;-4.70;99.90;;;;;;6233198;28;20145;-82
2022/12/13 08:16:23;;;;;;;52.57;25.83;;;-4.70;99.90;;;;;;6231876;28;20060;-82
2022/12/13 08:19:24;;;;;;;61.13;28.03;;;-4.60;99.90;;;;;;6233774;28;20042;-83
2022/12/13 08:22:27;;;;;;;53.90;28.90;;;-4.60;99.90;;;;;;6230882;28;20046;-82
2022/12/13 08:25:30;;;;;;;62.63;30.53;;;-4.50;99.90;;;;;;6231126;28;20050;-82
2022/12/13 08:28:33;;;;;;;61.73;29.73;;;-4.40;99.90;;;;;;6230300;28;20050;-83
2022/12/13 08:31:35;;;;;;;59.20;29.23;;;-4.40;99.90;;;;;;6230234;28;20046;-83
2022/12/13 08:34:37;;;;;;;53.57;27.93;;;-4.20;99.90;;;;;;6230185;28;20053;-82
2022/12/13 08:37:40;;;;;;;58.13;27.80;;;-4.10;99.90;;;;;;6229286;28;20054;-81
2022/12/13 08:40:42;;;;;;;49.33;26.27;;;-4.00;99.90;;;;;;6229541;28;20053;-84
2022/12/13 08:43:43;;;;;;;48.83;27.37;;;-3.90;99.90;;;;;;6229719;28;20396;-83
2022/12/13 08:46:45;;;;;;;52.00;29.20;;;-3.80;99.90;;;;;;6229802;28;20058;-83
2022/12/13 08:49:47;;;;;;;63.63;30.60;;;-3.70;99.90;;;;;;6229104;28;20050;-81
2022/12/13 08:52:51;;;;;;;57.90;31.20;;;-3.60;99.90;;;;;;6228321;28;20037;-83
2022/12/13 08:55:53;;;;;;;53.10;27.50;;;-3.40;99.90;;;;;;6228686;28;20494;-83
2022/12/13 08:58:55;;;;;;;63.60;31.57;;;-3.20;99.90;;;;;;6230947;22;20051;-80
2022/12/13 09:01:56;;;;;;;49.90;28.73;;;-3.00;99.90;;;;;;6199966;28;20054;-80
2022/12/13 09:04:58;;;;;;;43.43;26.07;;;-3.00;99.90;;;;;;6200789;28;20053;-80
2022/12/13 09:08:03;;;;;;;48.80;26.87;;;-2.80;99.90;;;;;;6193011;28;20058;-83
2022/12/13 09:11:06;;;;;;;52.43;29.27;;;-2.70;99.90;;;;;;6179302;28;20049;-80
2022/12/13 09:14:08;;;;;;;46.47;25.87;;;-2.50;99.90;;;;;;6177765;28;20054;-82
2022/12/13 09:17:09;;;;;;;47.37;26.00;;;-2.40;99.90;;;;;;6175032;28;20440;-79
2022/12/13 09:20:12;;;;;;;54.07;29.93;;;-2.20;99.90;;;;;;6178388;28;20049;-82
2022/12/13 09:23:15;;;;;;;40.27;27.43;;;-2.10;99.90;;;;;;6179798;28;20054;-79
2022/12/13 09:26:17;;;;;;;46.70;31.60;;;-2.00;99.90;;;;;;6175628;28;20047;-80
2022/12/13 09:29:19;;;;;;;94.03;55.73;;;-1.90;99.90;;;;;;6175538;28;20050;-80
2022/12/13 09:32:21;;;;;;;75.43;56.47;;;-1.80;99.90;;;;;;6174923;28;20055;-82
2022/12/13 09:35:23;;;;;;;35.77;21.23;;;-1.80;99.90;;;;;;6175071;28;20437;-79
2022/12/13 09:38:37;;;;;;;45.60;32.13;;;-1.80;99.90;;;;;;6175642;28;20047;-81
2022/12/13 09:41:42;;;;;;;36.63;20.17;;;-1.80;99.90;;;;;;6175324;28;20051;-81
2022/12/13 09:44:50;;;;;;;37.17;23.47;;;-1.80;99.90;;;;;;6176225;28;20051;-80
2022/12/13 09:47:53;;;;;;;;;;;-1.70;99.90;;;;;;6176405;28;20049;-80
2022/12/13 09:50:55;;;;;;;39.10;21.47;;;-1.50;99.90;;;;;;6191460;28;19922;-79
2022/12/13 09:53:58;;;;;;;50.17;37.17;;;-1.50;99.90;;;;;;6199579;28;20073;-80
2022/12/13 09:57:00;;;;;;;36.77;21.63;;;-1.50;99.90;;;;;;6200004;28;20435;-82
2022/12/13 10:00:05;;;;;;;29.50;15.60;;;-1.60;99.90;;;;;;6190762;28;20670;-85
2022/12/13 10:03:14;;;;;;;41.33;23.40;;;-1.60;99.90;;;;;;6170356;28;20053;-79
2022/12/13 10:06:19;;;;;;;31.57;16.90;;;-1.60;99.90;;;;;;6173392;28;20062;-83
2022/12/13 10:09:23;;;;;;;36.10;21.90;;;-1.50;99.90;;;;;;6173446;28;20055;-79
2022/12/13 10:12:25;;;;;;;34.70;19.80;;;-1.40;99.90;;;;;;6173459;28;20062;-80
2022/12/13 10:15:28;;;;;;;25.77;16.10;;;-1.30;99.90;;;;;;6173446;28;20047;-79
2022/12/13 10:18:34;;;;;;;34.00;20.57;;;-1.10;99.90;;;;;;6172497;28;20054;-80
2022/12/13 10:21:39;;;;;;;33.60;17.67;;;-1.10;99.90;;;;;;6147947;28;20059;-79
2022/12/13 10:24:51;;;;;;;35.87;18.03;;;-0.90;99.90;;;;;;6148658;28;20066;-80
2022/12/13 10:27:53;;;;;;;32.43;19.63;;;-0.90;99.90;;;;;;6150146;28;20047;-80
2022/12/13 10:30:56;;;;;;;41.20;22.47;;;-0.80;99.90;;;;;;6149132;28;20102;-80
2022/12/13 10:33:58;;;;;;;34.67;23.47;;;-0.90;99.90;;;;;;6151165;28;20077;-81
2022/12/13 10:37:00;;;;;;;31.80;19.73;;;-0.80;99.90;;;;;;6149779;28;20420;-81
2022/12/13 10:40:04;;;;;;;34.63;20.33;;;-0.70;99.90;;;;;;6148719;28;20051;-78
2022/12/13 10:43:08;;;;;;;36.40;20.97;;;-0.70;99.90;;;;;;6149013;28;20054;-78
2022/12/13 10:46:19;;;;;;;37.83;25.47;;;-0.40;99.90;;;;;;6152454;28;20051;-79
2022/12/13 10:49:23;;;;;;;48.33;38.27;;;-0.20;99.90;;;;;;6154012;28;20039;-77
2022/12/13 10:52:29;;;;;;;33.50;23.07;;;-0.10;99.90;;;;;;6152018;28;20070;-77
2022/12/13 10:55:34;;;;;;;30.20;22.10;;;0.10;99.90;;;;;;6152628;28;20497;-78
2022/12/13 10:58:39;;;;;;;31.37;18.00;;;0.20;99.90;;;;;;6151086;28;20047;-78
2022/12/13 11:01:41;;;;;;;30.40;19.47;;;0.30;99.90;;;;;;6178266;28;20050;-78
2022/12/13 11:04:42;;;;;;;28.37;18.70;;;0.30;99.90;;;;;;6175864;28;20058;-78
2022/12/13 11:07:45;;;;;;;26.10;16.33;;;0.30;99.90;;;;;;6175099;28;20043;-79
2022/12/13 11:10:56;;;;;;;31.03;19.70;;;0.40;99.90;;;;;;6176272;28;20260;-78
2022/12/13 11:14:00;;;;;;;21.47;15.17;;;0.40;99.90;;;;;;6177678;28;20043;-78
2022/12/13 11:17:08;;;;;;;32.45;19.88;;;0.50;99.90;;;;;;6175744;28;20129;-78
2022/12/13 11:20:19;;;;;;;27.60;17.80;;;0.50;99.90;;;;;;6183882;28;20054;-77
2022/12/13 11:23:28;;;;;;;21.63;12.98;;;0.40;99.90;;;;;;6196465;28;20046;-78
2022/12/13 11:26:34;;;;;;;24.87;14.87;;;0.40;99.90;;;;;;6200361;28;20161;-77
2022/12/13 11:29:50;;;;;;;26.97;17.50;;;0.30;99.90;;;;;;6199030;28;20057;-78
2022/12/13 11:33:14;;;;;;;20.07;12.70;;;0.30;99.90;;;;;;6199693;28;20042;-78
2022/12/13 11:36:25;;;;;;;27.20;17.80;;;0.30;99.90;;;;;;6199320;28;20050;-78
2022/12/13 11:39:31;;;;;;;23.60;14.13;;;0.20;99.90;;;;;;6198597;28;20046;-77
2022/12/13 11:42:41;;;;;;;26.43;15.10;;;0.20;99.90;;;;;;6199595;28;20045;-78
2022/12/13 11:45:47;;;;;;;20.50;14.10;;;0.20;99.90;;;;;;6199391;28;20050;-78
2022/12/13 11:48:56;;;;;;;22.87;15.43;;;0.20;99.90;;;;;;6195722;28;20464;-79
2022/12/13 11:52:02;;;;;;;25.63;14.63;;;0.20;99.90;;;;;;6182624;28;20054;-77
2022/12/13 11:55:11;;;;;;;24.57;16.33;;;0.20;99.90;;;;;;6200192;28;20120;-79
2022/12/13 11:58:22;;;;;;;28.53;16.20;;;0.30;99.90;;;;;;6199257;28;20057;-79
2022/12/13 12:01:30;;;;;;;30.37;15.00;;;0.30;99.90;;;;;;6198641;28;20058;-78
2022/12/13 12:04:38;;;;;;;17.80;10.83;;;0.30;99.90;;;;;;6175136;28;20046;-79
2022/12/13 12:07:44;;;;;;;21.02;14.98;;;0.40;99.90;;;;;;6173837;28;20050;-77
2022/12/13 12:10:47;;;;;;;27.57;15.90;;;0.40;99.90;;;;;;6175635;28;20061;-77
2022/12/13 12:13:55;;;;;;;27.10;16.60;;;0.40;99.90;;;;;;6175866;28;20405;-77
2022/12/13 12:16:58;;;;;;;23.83;16.73;;;0.40;99.90;;;;;;6175397;28;20524;-76
2022/12/13 12:20:00;;;;;;;33.93;17.23;;;0.50;99.90;;;;;;6182638;28;20058;-77
2022/12/13 12:23:08;;;;;;;27.73;14.93;;;0.40;99.90;;;;;;6191616;28;20062;-76
2022/12/13 12:26:13;;;;;;;31.43;17.60;;;0.50;99.90;;;;;;6199921;28;20058;-77
2022/12/13 12:29:44;;;;;;;22.33;13.53;;;0.60;99.90;;;;;;6199637;28;20046;-78
2022/12/13 12:32:51;;;;;;;21.33;13.50;;;0.60;99.90;;;;;;6171815;28;20046;-78
2022/12/13 12:36:05;;;;;;;27.92;14.18;;;0.70;99.90;;;;;;6176921;28;20042;-77
2022/12/13 12:39:23;;;;;;;28.33;16.37;;;0.70;99.90;;;;;;6177495;28;20038;-77
2022/12/13 12:42:46;;;;;;;28.45;15.68;;;0.70;99.90;;;;;;6176808;28;20191;-78
2022/12/13 12:45:59;;;;;;;29.63;14.40;;;0.70;99.90;;;;;;6176977;28;20066;-78
2022/12/13 12:49:31;;;;;;;23.60;15.60;;;0.90;99.90;;;;;;6193581;28;20496;-78
2022/12/13 12:52:44;;;;;;;17.85;10.45;;;1.00;99.90;;;;;;6191399;28;20046;-80
2022/12/13 12:55:54;;;;;;;23.33;12.48;;;1.20;99.90;;;;;;6197934;28;20421;-80
2022/12/13 12:59:06;;;;;;;27.58;15.32;;;1.20;99.90;;;;;;6200600;28;20072;-80
2022/12/13 13:02:20;;;;;;;26.17;18.15;;;1.50;99.90;;;;;;6199589;28;20596;-80
2022/12/13 13:05:26;;;;;;;25.42;14.43;;;1.50;99.90;;;;;;6180307;28;20057;-79
2022/12/13 13:08:33;;;;;;;28.52;13.57;;;1.40;99.90;;;;;;6177166;28;20053;-80
2022/12/13 13:11:40;;;;;;;26.00;13.70;;;1.30;99.90;;;;;;6177770;28;20134;-79
2022/12/13 13:14:42;;;;;;;20.52;13.15;;;1.20;99.90;;;;;;6175728;28;20046;-80
2022/12/13 13:17:47;;;;;;;21.55;13.65;;;1.20;99.90;;;;;;6175941;28;20058;-80
2022/12/13 13:21:25;;;;;;;23.40;13.38;;;1.20;99.90;;;;;;6182914;28;20460;-80
2022/12/13 13:24:28;;;;;;;24.08;13.63;;;1.10;99.90;;;;;;6151781;28;20135;-80
2022/12/13 13:27:32;;;;;;;28.45;13.70;;;1.10;99.90;;;;;;6150912;28;20461;-80
2022/12/13 13:30:35;;;;;;;23.20;14.60;;;1.10;99.90;;;;;;6151508;28;20145;-80
2022/12/13 13:33:46;;;;;;;24.05;11.52;;;1.00;99.90;;;;;;6150816;28;20039;-81
2022/12/13 13:36:51;;;;;;;23.08;15.48;;;1.00;99.90;;;;;;6150225;28;20062;-80
2022/12/13 13:39:59;;;;;;;18.70;12.38;;;0.90;99.90;;;;;;6150327;28;20377;-81
2022/12/13 13:43:15;;;;;;;27.55;16.25;;;0.90;99.90;;;;;;6151570;28;20043;-80
2022/12/13 13:46:16;;;;;;;31.77;15.95;;;0.90;99.90;;;;;;6149430;28;20493;-80
2022/12/13 13:49:20;;;;;;;19.40;13.75;;;0.80;99.90;;;;;;6159824;28;20052;-79
2022/12/13 13:52:23;;;;;;;16.92;11.23;;;0.80;99.90;;;;;;6190043;28;20050;-81
2022/12/13 13:55:46;;;;;;;21.25;12.55;;;0.80;99.90;;;;;;6189842;28;20039;-82
2022/12/13 13:59:39;;;;;;;18.48;12.60;;;0.70;99.90;;;;;;6173349;28;20081;-80
2022/12/13 14:03:16;;;;;;;23.52;12.82;;;0.70;99.90;;;;;;6173358;28;20496;-83
2022/12/13 14:07:01;;;;;;;23.73;13.95;;;0.80;99.90;;;;;;6169952;28;20061;-80
2022/12/13 14:10:35;;;;;;;24.45;12.30;;;0.80;99.90;;;;;;6174620;28;20170;-83
2022/12/13 14:14:15;;;;;;;21.85;13.25;;;1.00;99.90;;;;;;6156286;28;20054;-82
2022/12/13 14:18:12;;;;;;;26.67;14.52;;;0.90;99.90;;;;;;6151774;28;20409;-79
2022/12/13 14:21:21;;;;;;;27.87;15.23;;;0.80;99.90;;;;;;6120098;28;20171;-81
2022/12/13 14:24:31;;;;;;;29.63;17.70;;;0.70;99.90;;;;;;6199126;28;20508;-80
2022/12/13 14:27:41;;;;;;;30.40;16.07;;;0.60;99.90;;;;;;6203049;28;20042;-79
2022/12/13 14:30:44;;;;;;;26.57;14.60;;;0.50;99.90;;;;;;6187807;28;20047;-79
2022/12/13 14:33:46;;;;;;;29.67;15.60;;;0.50;99.90;;;;;;6180925;28;20054;-81
2022/12/13 14:36:55;;;;;;;29.90;16.67;;;0.50;99.90;;;;;;6183740;28;20051;-81
2022/12/13 14:40:00;;;;;;;30.90;17.43;;;0.50;99.90;;;;;;6183874;28;20570;-82
2022/12/13 14:43:02;;;;;;;28.50;15.17;;;0.40;99.90;;;;;;6184625;28;20492;-81
2022/12/13 14:46:05;;;;;;;29.50;16.30;;;0.40;99.90;;;;;;6185083;28;20057;-81
2022/12/13 14:49:12;;;;;;;28.13;16.37;;;0.30;99.90;;;;;;6182938;28;20050;-80
2022/12/13 14:52:19;;;;;;;20.67;11.37;;;0.30;99.90;;;;;;6193820;28;20126;-81
2022/12/13 14:55:29;;;;;;;25.50;14.70;;;0.20;99.90;;;;;;6192744;28;20065;-80
2022/12/13 14:58:30;;;;;;;30.23;19.03;;;0.10;99.90;;;;;;6195529;23;20046;-82
2022/12/13 15:01:34;;;;;;;31.20;16.93;;;0.00;99.90;;;;;;6203122;28;20054;-79
2022/12/13 15:04:36;;;;;;;21.40;13.23;;;-0.10;99.90;;;;;;6200522;28;20046;-81
2022/12/13 15:07:40;;;;;;;34.30;18.03;;;-0.10;99.90;;;;;;6218198;28;20471;-80
2022/12/13 15:10:46;;;;;;;28.77;14.90;;;-0.20;99.90;;;;;;6226745;28;20069;-81
2022/12/13 15:13:51;;;;;;;24.97;14.83;;;-0.20;99.90;;;;;;6227438;28;20056;-80
2022/12/13 15:16:56;;;;;;;31.27;18.10;;;-0.30;99.90;;;;;;6208999;28;20057;-81
2022/12/13 15:19:58;;;;;;;39.63;20.37;;;-0.40;99.90;;;;;;6190332;28;20053;-81
2022/12/13 15:23:04;;;;;;;29.73;18.37;;;-0.50;99.90;;;;;;6195369;28;20518;-81
2022/12/13 15:26:12;;;;;;;30.13;17.20;;;-0.50;99.90;;;;;;6202063;28;20072;-82
2022/12/13 15:29:18;;;;;;;27.13;17.33;;;-0.60;99.90;;;;;;6194192;28;20793;-79
2022/12/13 15:32:21;;;;;;;26.33;14.40;;;-0.60;99.90;;;;;;6180097;28;20051;-80
2022/12/13 15:35:26;;;;;;;35.53;19.03;;;-0.70;99.90;;;;;;6179531;28;20046;-81
2022/12/13 15:38:28;;;;;;;28.33;16.57;;;-0.80;99.90;;;;;;6179000;28;20047;-80
2022/12/13 15:41:35;;;;;;;36.93;20.93;;;-0.80;99.90;;;;;;6176904;28;20047;-80
2022/12/13 15:44:45;;;;;;;30.03;17.27;;;-0.80;99.90;;;;;;6178917;28;20055;-80
2022/12/13 15:47:47;;;;;;;24.97;14.13;;;-0.80;99.90;;;;;;6176593;28;20101;-79
2022/12/13 15:50:49;;;;;;;29.10;15.10;;;-0.90;99.90;;;;;;6188251;28;20055;-80
2022/12/13 15:54:03;;;;;;;35.17;17.63;;;-0.90;99.90;;;;;;6185664;28;20126;-78
2022/12/13 15:57:15;;;;;;;26.03;17.50;;;-0.90;99.90;;;;;;6191595;28;20046;-78